sensor_id;sensor_type;location;lat;lon;timestamp;P1;durP1;ratioP1;P2;durP2;ratioP2
42802;SDS011;28447;48.682;9.022;2023-02-28T05:01:04;11.57;;;6.80;;
42802;SDS011;28447;48.682;9.022;2023-02-28T05:03:41;8.87;;;6.97;;
42802;SDS011;28447;48.682;9.022;2023-02-28T05:06:08;9.90;;;6.37;;
42802;SDS011;28447;48.682;9.022;2023-02-28T05:08:35;9.03;;;5.80;;
42802;SDS011;28447;48.682;9.022;2023-02-28T05:11:01;14.07;;;7.07;;
42802;SDS011;28447;48.682;9.022;2023-02-28T05:13:27;7.80;;;6.40;;
42802;SDS011;28447;48.682;9.022;2023-02-28T05:15:53;12.00;;;5.90;;
42802;SDS011;28447;48.682;9.022;2023-02-28T05:18:19;7.93;;;5.17;;
42802;SDS011;28447;48.682;9.022;2023-02-28T05:20:45;11.53;;;6.40;;
42802;SDS011;28447;48.682;9.022;2023-02-28T05:23:12;13.63;;;6.77;;
42802;SDS011;28447;48.682;9.022;2023-02-28T05:25:38;11.70;;;6.43;;
42802;SDS011;28447;48.682;9.022;2023-02-28T05:28:05;11.03;;;6.57;;
42802;SDS011;28447;48.682;9.022;2023-02-28T05:30:31;10.17;;;6.40;;
42802;SDS011;28447;48.682;9.022;2023-02-28T05:32:57;8.70;;;6.63;;
42802;SDS011;28447;48.682;9.022;2023-02-28T05:35:23;12.57;;;7.23;;
42802;SDS011;28447;48.682;9.022;2023-02-28T05:37:49;10.10;;;6.83;;
42802;SDS011;28447;48.682;9.022;2023-02-28T05:40:15;10.33;;;7.00;;
42802;SDS011;28447;48.682;9.022;2023-02-28T05:42:41;13.83;;;6.90;;
42802;SDS011;28447;48.682;9.022;2023-02-28T05:45:07;9.90;;;6.47;;
42802;SDS011;28447;48.682;9.022;2023-02-28T05:47:34;10.77;;;7.10;;
42802;SDS011;28447;48.682;9.022;2023-02-28T05:50:00;12.93;;;7.23;;
42802;SDS011;28447;48.682;9.022;2023-02-28T05:52:27;9.43;;;6.33;;
42802;SDS011;28447;48.682;9.022;2023-02-28T05:54:54;12.53;;;7.83;;
42802;SDS011;28447;48.682;9.022;2023-02-28T05:57:20;13.53;;;8.13;;
42802;SDS011;28447;48.682;9.022;2023-02-28T05:59:46;14.30;;;7.03;;
42802;SDS011;28447;48.682;9.022;2023-02-28T06:02:13;11.80;;;7.47;;
42802;SDS011;28447;48.682;9.022;2023-02-28T06:04:40;11.40;;;6.53;;
42802;SDS011;28447;48.682;9.022;2023-02-28T06:07:07;13.00;;;7.67;;
42802;SDS011;28447;48.682;9.022;2023-02-28T06:09:33;14.50;;;7.87;;
42802;SDS011;28447;48.682;9.022;2023-02-28T06:11:59;13.20;;;8.67;;
42802;SDS011;28447;48.682;9.022;2023-02-28T06:14:27;12.20;;;7.00;;
42802;SDS011;28447;48.682;9.022;2023-02-28T06:16:53;11.50;;;6.80;;
42802;SDS011;28447;48.682;9.022;2023-02-28T06:19:19;14.30;;;7.10;;
42802;SDS011;28447;48.682;9.022;2023-02-28T06:21:44;15.13;;;7.97;;
42802;SDS011;28447;48.682;9.022;2023-02-28T06:24:13;13.60;;;7.50;;
42802;SDS011;28447;48.682;9.022;2023-02-28T06:26:39;19.53;;;8.57;;
42802;SDS011;28447;48.682;9.022;2023-02-28T06:29:04;14.40;;;8.37;;
42802;SDS011;28447;48.682;9.022;2023-02-28T06:31:30;12.13;;;7.40;;
42802;SDS011;28447;48.682;9.022;2023-02-28T06:33:56;13.17;;;7.67;;
42802;SDS011;28447;48.682;9.022;2023-02-28T06:36:22;11.37;;;7.97;;
42802;SDS011;28447;48.682;9.022;2023-02-28T06:38:47;13.90;;;7.73;;
42802;SDS011;28447;48.682;9.022;2023-02-28T06:41:19;16.93;;;8.07;;
42802;SDS011;28447;48.682;9.022;2023-02-28T06:43:46;15.03;;;8.00;;
42802;SDS011;28447;48.682;9.022;2023-02-28T06:46:12;12.20;;;7.47;;
42802;SDS011;28447;48.682;9.022;2023-02-28T06:48:39;12.53;;;7.80;;
42802;SDS011;28447;48.682;9.022;2023-02-28T06:51:06;15.13;;;8.30;;
42802;SDS011;28447;48.682;9.022;2023-02-28T06:53:33;11.97;;;7.30;;
42802;SDS011;28447;48.682;9.022;2023-02-28T06:55:59;11.77;;;7.80;;
42802;SDS011;28447;48.682;9.022;2023-02-28T06:58:32;13.63;;;6.80;;
42802;SDS011;28447;48.682;9.022;2023-02-28T07:00:58;13.40;;;8.57;;
42802;SDS011;28447;48.682;9.022;2023-02-28T07:03:24;13.97;;;7.23;;
42802;SDS011;28447;48.682;9.022;2023-02-28T07:05:50;13.90;;;7.93;;
42802;SDS011;28447;48.682;9.022;2023-02-28T07:08:16;11.57;;;8.03;;
42802;SDS011;28447;48.682;9.022;2023-02-28T07:10:42;14.20;;;8.93;;
42802;SDS011;28447;48.682;9.022;2023-02-28T07:13:08;13.97;;;7.53;;
42802;SDS011;28447;48.682;9.022;2023-02-28T07:15:34;13.23;;;7.97;;
42802;SDS011;28447;48.682;9.022;2023-02-28T07:18:01;17.10;;;7.93;;
42802;SDS011;28447;48.682;9.022;2023-02-28T07:20:26;14.60;;;9.07;;
42802;SDS011;28447;48.682;9.022;2023-02-28T07:22:52;13.20;;;9.10;;
42802;SDS011;28447;48.682;9.022;2023-02-28T07:25:30;16.57;;;8.70;;
42802;SDS011;28447;48.682;9.022;2023-02-28T07:27:56;19.10;;;9.37;;
42802;SDS011;28447;48.682;9.022;2023-02-28T07:30:22;16.83;;;9.27;;
42802;SDS011;28447;48.682;9.022;2023-02-28T07:32:47;19.03;;;8.93;;
42802;SDS011;28447;48.682;9.022;2023-02-28T07:35:13;12.60;;;7.53;;
42802;SDS011;28447;48.682;9.022;2023-02-28T07:37:40;17.37;;;8.80;;
42802;SDS011;28447;48.682;9.022;2023-02-28T07:40:08;14.60;;;8.70;;
42802;SDS011;28447;48.682;9.022;2023-02-28T07:42:36;12.43;;;8.53;;
42802;SDS011;28447;48.682;9.022;2023-02-28T07:45:02;16.33;;;8.50;;
42802;SDS011;28447;48.682;9.022;2023-02-28T07:47:29;15.20;;;9.23;;
42802;SDS011;28447;48.682;9.022;2023-02-28T07:49:55;13.77;;;8.20;;
42802;SDS011;28447;48.682;9.022;2023-02-28T07:52:21;16.73;;;8.70;;
42802;SDS011;28447;48.682;9.022;2023-02-28T07:54:48;16.10;;;9.27;;
42802;SDS011;28447;48.682;9.022;2023-02-28T07:57:14;15.60;;;8.50;;
42802;SDS011;28447;48.682;9.022;2023-02-28T07:59:40;15.50;;;8.30;;
42802;SDS011;28447;48.682;9.022;2023-02-28T08:02:06;14.37;;;8.40;;
42802;SDS011;28447;48.682;9.022;2023-02-28T08:04:35;15.60;;;8.97;;
42802;SDS011;28447;48.682;9.022;2023-02-28T08:07:00;16.00;;;10.13;;
42802;SDS011;28447;48.682;9.022;2023-02-28T08:09:26;17.87;;;9.60;;
42802;SDS011;28447;48.682;9.022;2023-02-28T08:11:52;13.30;;;8.37;;
42802;SDS011;28447;48.682;9.022;2023-02-28T08:14:17;19.43;;;10.60;;
42802;SDS011;28447;48.682;9.022;2023-02-28T08:16:43;15.50;;;9.80;;
42802;SDS011;28447;48.682;9.022;2023-02-28T08:19:08;12.10;;;6.97;;
42802;SDS011;28447;48.682;9.022;2023-02-28T08:21:34;13.70;;;8.50;;
42802;SDS011;28447;48.682;9.022;2023-02-28T08:24:00;17.30;;;9.03;;
42802;SDS011;28447;48.682;9.022;2023-02-28T08:26:25;20.37;;;8.23;;
42802;SDS011;28447;48.682;9.022;2023-02-28T08:28:51;17.03;;;9.63;;
42802;SDS011;28447;48.682;9.022;2023-02-28T08:31:17;13.70;;;8.70;;
42802;SDS011;28447;48.682;9.022;2023-02-28T08:33:43;18.27;;;11.57;;
42802;SDS011;28447;48.682;9.022;2023-02-28T08:36:10;18.13;;;9.13;;
42802;SDS011;28447;48.682;9.022;2023-02-28T08:38:36;16.70;;;9.73;;
42802;SDS011;28447;48.682;9.022;2023-02-28T08:41:04;18.70;;;10.20;;
42802;SDS011;28447;48.682;9.022;2023-02-28T08:43:32;18.73;;;9.37;;
42802;SDS011;28447;48.682;9.022;2023-02-28T08:45:59;16.20;;;9.00;;
42802;SDS011;28447;48.682;9.022;2023-02-28T08:48:25;19.00;;;9.20;;
42802;SDS011;28447;48.682;9.022;2023-02-28T08:50:58;16.93;;;10.73;;
42802;SDS011;28447;48.682;9.022;2023-02-28T08:53:29;16.00;;;9.53;;
42802;SDS011;28447;48.682;9.022;2023-02-28T08:55:59;18.10;;;9.20;;
42802;SDS011;28447;48.682;9.022;2023-02-28T08:58:26;18.13;;;9.40;;
42802;SDS011;28447;48.682;9.022;2023-02-28T09:00:52;18.53;;;9.40;;
42802;SDS011;28447;48.682;9.022;2023-02-28T09:03:18;16.40;;;9.00;;
42802;SDS011;28447;48.682;9.022;2023-02-28T09:05:51;19.30;;;10.60;;
42802;SDS011;28447;48.682;9.022;2023-02-28T09:08:28;16.50;;;9.17;;
42802;SDS011;28447;48.682;9.022;2023-02-28T09:10:55;15.60;;;10.70;;
42802;SDS011;28447;48.682;9.022;2023-02-28T09:13:22;14.83;;;9.20;;
42802;SDS011;28447;48.682;9.022;2023-02-28T09:15:49;19.97;;;10.60;;
42802;SDS011;28447;48.682;9.022;2023-02-28T09:18:15;17.07;;;8.50;;
42802;SDS011;28447;48.682;9.022;2023-02-28T09:20:41;15.63;;;9.27;;
42802;SDS011;28447;48.682;9.022;2023-02-28T09:23:08;17.33;;;10.07;;
42802;SDS011;28447;48.682;9.022;2023-02-28T09:25:35;16.37;;;9.50;;
42802;SDS011;28447;48.682;9.022;2023-02-28T09:28:01;15.00;;;9.17;;
42802;SDS011;28447;48.682;9.022;2023-02-28T09:30:27;17.10;;;8.33;;
42802;SDS011;28447;48.682;9.022;2023-02-28T09:32:53;18.93;;;10.17;;
42802;SDS011;28447;48.682;9.022;2023-02-28T09:35:20;14.63;;;9.33;;
42802;SDS011;28447;48.682;9.022;2023-02-28T09:37:46;17.23;;;9.17;;
42802;SDS011;28447;48.682;9.022;2023-02-28T09:40:16;16.83;;;10.27;;
42802;SDS011;28447;48.682;9.022;2023-02-28T09:42:47;18.10;;;10.10;;
42802;SDS011;28447;48.682;9.022;2023-02-28T09:45:24;15.43;;;9.90;;
42802;SDS011;28447;48.682;9.022;2023-02-28T09:47:56;18.73;;;10.50;;
42802;SDS011;28447;48.682;9.022;2023-02-28T09:50:33;18.20;;;9.47;;
42802;SDS011;28447;48.682;9.022;2023-02-28T09:53:11;18.43;;;10.07;;
42802;SDS011;28447;48.682;9.022;2023-02-28T09:55:47;16.10;;;9.87;;
42802;SDS011;28447;48.682;9.022;2023-02-28T09:58:22;14.77;;;8.73;;
42802;SDS011;28447;48.682;9.022;2023-02-28T10:01:00;14.47;;;9.90;;
42802;SDS011;28447;48.682;9.022;2023-02-28T10:03:49;18.03;;;9.90;;
42802;SDS011;28447;48.682;9.022;2023-02-28T10:06:39;16.03;;;9.70;;
42802;SDS011;28447;48.682;9.022;2023-02-28T10:09:11;14.20;;;9.20;;
42802;SDS011;28447;48.682;9.022;2023-02-28T10:11:42;16.77;;;11.00;;
42802;SDS011;28447;48.682;9.022;2023-02-28T10:16:46;15.17;;;9.40;;
42802;SDS011;28447;48.682;9.022;2023-02-28T10:22:59;13.53;;;8.60;;
42802;SDS011;28447;48.682;9.022;2023-02-28T10:24:55;17.53;;;9.47;;
42802;SDS011;28447;48.682;9.022;2023-02-28T10:27:26;16.73;;;9.30;;
42802;SDS011;28447;48.682;9.022;2023-02-28T10:29:58;20.13;;;11.87;;
42802;SDS011;28447;48.682;9.022;2023-02-28T10:32:27;16.23;;;8.83;;
42802;SDS011;28447;48.682;9.022;2023-02-28T10:34:55;18.57;;;10.60;;
42802;SDS011;28447;48.682;9.022;2023-02-28T10:37:31;22.30;;;10.60;;
42802;SDS011;28447;48.682;9.022;2023-02-28T10:39:57;15.77;;;10.10;;
42802;SDS011;28447;48.682;9.022;2023-02-28T10:42:29;18.00;;;10.23;;
42802;SDS011;28447;48.682;9.022;2023-02-28T10:47:31;15.87;;;9.73;;
42802;SDS011;28447;48.682;9.022;2023-02-28T10:49:59;19.17;;;9.63;;
42802;SDS011;28447;48.682;9.022;2023-02-28T10:52:38;25.67;;;11.00;;
42802;SDS011;28447;48.682;9.022;2023-02-28T10:58:01;15.40;;;9.30;;
42802;SDS011;28447;48.682;9.022;2023-02-28T11:00:32;16.00;;;10.17;;
42802;SDS011;28447;48.682;9.022;2023-02-28T11:03:00;17.10;;;10.07;;
42802;SDS011;28447;48.682;9.022;2023-02-28T11:05:27;19.27;;;10.70;;
42802;SDS011;28447;48.682;9.022;2023-02-28T11:08:14;17.67;;;10.50;;
42802;SDS011;28447;48.682;9.022;2023-02-28T11:10:46;16.00;;;10.20;;
42802;SDS011;28447;48.682;9.022;2023-02-28T11:13:19;16.43;;;10.40;;
42802;SDS011;28447;48.682;9.022;2023-02-28T11:15:56;15.07;;;9.40;;
42802;SDS011;28447;48.682;9.022;2023-02-28T11:18:27;19.83;;;10.53;;
42802;SDS011;28447;48.682;9.022;2023-02-28T11:20:55;15.80;;;9.80;;
42802;SDS011;28447;48.682;9.022;2023-02-28T11:23:25;18.70;;;10.63;;
42802;SDS011;28447;48.682;9.022;2023-02-28T11:25:52;15.40;;;10.33;;
42802;SDS011;28447;48.682;9.022;2023-02-28T11:28:26;16.80;;;10.53;;
42802;SDS011;28447;48.682;9.022;2023-02-28T11:33:40;15.50;;;9.23;;
42802;SDS011;28447;48.682;9.022;2023-02-28T11:36:25;17.53;;;10.67;;
42802;SDS011;28447;48.682;9.022;2023-02-28T11:38:53;13.87;;;9.90;;
42802;SDS011;28447;48.682;9.022;2023-02-28T11:41:28;16.60;;;10.07;;
42802;SDS011;28447;48.682;9.022;2023-02-28T11:46:50;16.73;;;9.80;;
42802;SDS011;28447;48.682;9.022;2023-02-28T12:11:27;15.00;;;10.87;;
42802;SDS011;28447;48.682;9.022;2023-02-28T12:14:21;15.87;;;11.10;;
42802;SDS011;28447;48.682;9.022;2023-02-28T12:22:54;16.73;;;11.60;;
42802;SDS011;28447;48.682;9.022;2023-02-28T12:28:18;20.60;;;12.77;;
42802;SDS011;28447;48.682;9.022;2023-02-28T12:31:10;15.50;;;11.37;;
42802;SDS011;28447;48.682;9.022;2023-02-28T12:33:51;15.13;;;11.03;;
42802;SDS011;28447;48.682;9.022;2023-02-28T12:36:20;18.00;;;11.00;;
42802;SDS011;28447;48.682;9.022;2023-02-28T12:38:53;17.57;;;11.97;;
42802;SDS011;28447;48.682;9.022;2023-02-28T12:41:34;16.67;;;10.90;;
42802;SDS011;28447;48.682;9.022;2023-02-28T12:44:13;18.20;;;11.17;;
42802;SDS011;28447;48.682;9.022;2023-02-28T12:46:51;17.67;;;11.37;;
42802;SDS011;28447;48.682;9.022;2023-02-28T12:49:31;16.23;;;12.37;;
42802;SDS011;28447;48.682;9.022;2023-02-28T12:52:06;19.40;;;11.10;;
42802;SDS011;28447;48.682;9.022;2023-02-28T12:54:38;14.80;;;10.30;;
42802;SDS011;28447;48.682;9.022;2023-02-28T13:00:00;16.17;;;10.87;;
42802;SDS011;28447;48.682;9.022;2023-02-28T13:05:19;13.00;;;9.90;;
42802;SDS011;28447;48.682;9.022;2023-02-28T13:10:49;17.40;;;11.57;;
42802;SDS011;28447;48.682;9.022;2023-02-28T13:13:20;13.17;;;10.30;;
42802;SDS011;28447;48.682;9.022;2023-02-28T13:18:32;13.13;;;10.30;;
42802;SDS011;28447;48.682;9.022;2023-02-28T13:21:04;16.37;;;12.20;;
42802;SDS011;28447;48.682;9.022;2023-02-28T13:23:37;14.83;;;11.47;;
42802;SDS011;28447;48.682;9.022;2023-02-28T13:26:12;13.57;;;11.20;;
42802;SDS011;28447;48.682;9.022;2023-02-28T13:28:57;15.80;;;10.90;;
42802;SDS011;28447;48.682;9.022;2023-02-28T13:47:40;15.20;;;10.97;;
42802;SDS011;28447;48.682;9.022;2023-02-28T14:04:54;13.70;;;10.73;;
42802;SDS011;28447;48.682;9.022;2023-02-28T14:07:30;15.10;;;11.37;;
42802;SDS011;28447;48.682;9.022;2023-02-28T14:10:03;19.87;;;11.63;;
42802;SDS011;28447;48.682;9.022;2023-02-28T14:15:39;13.67;;;10.80;;
42802;SDS011;28447;48.682;9.022;2023-02-28T14:18:21;15.67;;;11.67;;
42802;SDS011;28447;48.682;9.022;2023-02-28T14:20:47;14.27;;;10.10;;
42802;SDS011;28447;48.682;9.022;2023-02-28T14:23:32;15.17;;;11.33;;
42802;SDS011;28447;48.682;9.022;2023-02-28T14:26:23;15.27;;;10.77;;
42802;SDS011;28447;48.682;9.022;2023-02-28T14:29:54;14.07;;;10.23;;
42802;SDS011;28447;48.682;9.022;2023-02-28T14:37:36;15.60;;;11.43;;
42802;SDS011;28447;48.682;9.022;2023-02-28T14:40:04;15.17;;;11.27;;
42802;SDS011;28447;48.682;9.022;2023-02-28T14:42:37;17.83;;;10.60;;
42802;SDS011;28447;48.682;9.022;2023-02-28T14:45:16;15.00;;;11.80;;
42802;SDS011;28447;48.682;9.022;2023-02-28T14:47:44;12.90;;;10.20;;
42802;SDS011;28447;48.682;9.022;2023-02-28T14:50:22;13.47;;;10.40;;
42802;SDS011;28447;48.682;9.022;2023-02-28T14:52:51;17.50;;;11.97;;
42802;SDS011;28447;48.682;9.022;2023-02-28T14:55:23;16.10;;;12.27;;
42802;SDS011;28447;48.682;9.022;2023-02-28T14:58:19;15.50;;;11.60;;
42802;SDS011;28447;48.682;9.022;2023-02-28T15:00:47;13.53;;;9.87;;
42802;SDS011;28447;48.682;9.022;2023-02-28T15:03:23;17.93;;;10.87;;
42802;SDS011;28447;48.682;9.022;2023-02-28T15:05:56;14.27;;;11.43;;
42802;SDS011;28447;48.682;9.022;2023-02-28T15:08:23;15.87;;;10.63;;
42802;SDS011;28447;48.682;9.022;2023-02-28T15:10:53;20.90;;;10.93;;
42802;SDS011;28447;48.682;9.022;2023-02-28T15:13:19;13.33;;;11.20;;
42802;SDS011;28447;48.682;9.022;2023-02-28T15:18:15;16.47;;;11.23;;
42802;SDS011;28447;48.682;9.022;2023-02-28T15:20:46;17.00;;;11.30;;
42802;SDS011;28447;48.682;9.022;2023-02-28T15:23:13;17.07;;;11.40;;
42802;SDS011;28447;48.682;9.022;2023-02-28T15:25:40;14.60;;;11.40;;
42802;SDS011;28447;48.682;9.022;2023-02-28T15:28:09;13.87;;;10.73;;
42802;SDS011;28447;48.682;9.022;2023-02-28T15:31:01;14.70;;;10.37;;
42802;SDS011;28447;48.682;9.022;2023-02-28T15:33:29;20.33;;;11.93;;
42802;SDS011;28447;48.682;9.022;2023-02-28T15:36:06;14.03;;;11.33;;
42802;SDS011;28447;48.682;9.022;2023-02-28T15:38:40;13.93;;;10.70;;
42802;SDS011;28447;48.682;9.022;2023-02-28T15:41:20;14.23;;;10.50;;
42802;SDS011;28447;48.682;9.022;2023-02-28T15:44:13;14.57;;;11.00;;
42802;SDS011;28447;48.682;9.022;2023-02-28T15:49:34;15.90;;;10.60;;
42802;SDS011;28447;48.682;9.022;2023-02-28T15:52:05;14.50;;;10.50;;
42802;SDS011;28447;48.682;9.022;2023-02-28T15:54:34;16.93;;;11.10;;
42802;SDS011;28447;48.682;9.022;2023-02-28T15:57:04;16.80;;;11.50;;
42802;SDS011;28447;48.682;9.022;2023-02-28T15:59:33;13.30;;;10.20;;
42802;SDS011;28447;48.682;9.022;2023-02-28T16:02:23;15.30;;;10.60;;
42802;SDS011;28447;48.682;9.022;2023-02-28T16:07:35;16.50;;;10.50;;
42802;SDS011;28447;48.682;9.022;2023-02-28T16:10:02;12.90;;;9.60;;
42802;SDS011;28447;48.682;9.022;2023-02-28T16:12:31;18.40;;;10.83;;
42802;SDS011;28447;48.682;9.022;2023-02-28T16:15:02;14.03;;;9.47;;
42802;SDS011;28447;48.682;9.022;2023-02-28T16:17:33;14.60;;;10.50;;
42802;SDS011;28447;48.682;9.022;2023-02-28T16:20:00;14.87;;;9.87;;
42802;SDS011;28447;48.682;9.022;2023-02-28T16:22:30;15.73;;;10.50;;
42802;SDS011;28447;48.682;9.022;2023-02-28T16:24:56;15.47;;;9.73;;
42802;SDS011;28447;48.682;9.022;2023-02-28T16:27:25;15.27;;;9.47;;
42802;SDS011;28447;48.682;9.022;2023-02-28T16:29:56;16.57;;;11.00;;
42802;SDS011;28447;48.682;9.022;2023-02-28T16:32:22;15.37;;;10.77;;
42802;SDS011;28447;48.682;9.022;2023-02-28T16:34:47;14.57;;;10.00;;
42802;SDS011;28447;48.682;9.022;2023-02-28T16:37:14;16.60;;;9.97;;
42802;SDS011;28447;48.682;9.022;2023-02-28T16:39:41;20.17;;;11.73;;
42802;SDS011;28447;48.682;9.022;2023-02-28T16:42:22;17.47;;;10.53;;
42802;SDS011;28447;48.682;9.022;2023-02-28T16:44:50;21.63;;;10.87;;
42802;SDS011;28447;48.682;9.022;2023-02-28T16:47:17;17.53;;;11.13;;
42802;SDS011;28447;48.682;9.022;2023-02-28T16:49:43;17.00;;;10.47;;
42802;SDS011;28447;48.682;9.022;2023-02-28T16:52:09;19.37;;;11.87;;
42802;SDS011;28447;48.682;9.022;2023-02-28T16:54:36;16.20;;;11.03;;
42802;SDS011;28447;48.682;9.022;2023-02-28T16:57:04;16.03;;;10.23;;
42802;SDS011;28447;48.682;9.022;2023-02-28T16:59:30;19.03;;;10.80;;
42802;SDS011;28447;48.682;9.022;2023-02-28T17:01:57;20.90;;;11.93;;
42802;SDS011;28447;48.682;9.022;2023-02-28T17:04:24;16.10;;;10.80;;
42802;SDS011;28447;48.682;9.022;2023-02-28T17:06:50;24.17;;;11.87;;
42802;SDS011;28447;48.682;9.022;2023-02-28T17:09:17;16.47;;;9.90;;
42802;SDS011;28447;48.682;9.022;2023-02-28T17:11:46;14.37;;;10.27;;
42802;SDS011;28447;48.682;9.022;2023-02-28T17:14:12;22.20;;;11.90;;
42802;SDS011;28447;48.682;9.022;2023-02-28T17:16:38;18.30;;;10.10;;
42802;SDS011;28447;48.682;9.022;2023-02-28T17:19:05;21.20;;;11.60;;
42802;SDS011;28447;48.682;9.022;2023-02-28T17:21:36;15.20;;;10.40;;
42802;SDS011;28447;48.682;9.022;2023-02-28T17:24:02;20.70;;;10.70;;
42802;SDS011;28447;48.682;9.022;2023-02-28T17:26:27;15.10;;;10.40;;
42802;SDS011;28447;48.682;9.022;2023-02-28T17:28:54;16.03;;;11.17;;
42802;SDS011;28447;48.682;9.022;2023-02-28T17:31:24;21.57;;;11.27;;
42802;SDS011;28447;48.682;9.022;2023-02-28T17:33:51;15.53;;;10.03;;
42802;SDS011;28447;48.682;9.022;2023-02-28T17:36:24;21.77;;;11.03;;
42802;SDS011;28447;48.682;9.022;2023-02-28T17:38:51;20.50;;;11.40;;
42802;SDS011;28447;48.682;9.022;2023-02-28T17:41:20;21.93;;;12.83;;
42802;SDS011;28447;48.682;9.022;2023-02-28T17:43:46;21.27;;;11.80;;
42802;SDS011;28447;48.682;9.022;2023-02-28T17:46:19;19.17;;;10.77;;
42802;SDS011;28447;48.682;9.022;2023-02-28T17:48:46;20.37;;;11.30;;
42802;SDS011;28447;48.682;9.022;2023-02-28T17:51:13;18.90;;;10.63;;
42802;SDS011;28447;48.682;9.022;2023-02-28T17:53:40;20.83;;;11.63;;
42802;SDS011;28447;48.682;9.022;2023-02-28T17:56:10;18.40;;;10.73;;
42802;SDS011;28447;48.682;9.022;2023-02-28T17:58:38;21.10;;;11.83;;
42802;SDS011;28447;48.682;9.022;2023-02-28T18:01:03;20.47;;;10.70;;
42802;SDS011;28447;48.682;9.022;2023-02-28T18:03:29;16.40;;;10.93;;
42802;SDS011;28447;48.682;9.022;2023-02-28T18:05:56;19.63;;;11.63;;
42802;SDS011;28447;48.682;9.022;2023-02-28T18:08:22;22.87;;;11.97;;
42802;SDS011;28447;48.682;9.022;2023-02-28T18:10:47;20.60;;;11.67;;
42802;SDS011;28447;48.682;9.022;2023-02-28T18:13:13;24.03;;;11.40;;
42802;SDS011;28447;48.682;9.022;2023-02-28T18:15:39;17.77;;;11.37;;
42802;SDS011;28447;48.682;9.022;2023-02-28T18:18:04;21.20;;;11.80;;
42802;SDS011;28447;48.682;9.022;2023-02-28T18:20:31;22.57;;;11.83;;
42802;SDS011;28447;48.682;9.022;2023-02-28T18:22:58;15.77;;;9.97;;
42802;SDS011;28447;48.682;9.022;2023-02-28T18:25:24;17.20;;;10.73;;
42802;SDS011;28447;48.682;9.022;2023-02-28T18:27:50;18.90;;;11.40;;
42802;SDS011;28447;48.682;9.022;2023-02-28T18:30:22;21.60;;;11.87;;
42802;SDS011;28447;48.682;9.022;2023-02-28T18:32:50;20.67;;;12.00;;
42802;SDS011;28447;48.682;9.022;2023-02-28T18:35:15;22.10;;;12.67;;
42802;SDS011;28447;48.682;9.022;2023-02-28T18:38:20;22.13;;;12.37;;
42802;SDS011;28447;48.682;9.022;2023-02-28T18:40:54;24.07;;;12.20;;
42802;SDS011;28447;48.682;9.022;2023-02-28T18:43:21;18.77;;;12.00;;
42802;SDS011;28447;48.682;9.022;2023-02-28T18:45:46;20.13;;;12.10;;
42802;SDS011;28447;48.682;9.022;2023-02-28T18:48:12;23.00;;;12.80;;
42802;SDS011;28447;48.682;9.022;2023-02-28T18:50:39;21.63;;;12.37;;
42802;SDS011;28447;48.682;9.022;2023-02-28T18:53:06;21.00;;;11.83;;
42802;SDS011;28447;48.682;9.022;2023-02-28T18:55:31;21.70;;;13.10;;
42802;SDS011;28447;48.682;9.022;2023-02-28T18:57:58;21.17;;;12.50;;
42802;SDS011;28447;48.682;9.022;2023-02-28T19:00:24;19.00;;;12.20;;
42802;SDS011;28447;48.682;9.022;2023-02-28T19:02:50;17.30;;;10.80;;
42802;SDS011;28447;48.682;9.022;2023-02-28T19:05:16;22.90;;;11.03;;
42802;SDS011;28447;48.682;9.022;2023-02-28T19:07:43;20.43;;;11.47;;
42802;SDS011;28447;48.682;9.022;2023-02-28T19:10:09;16.37;;;10.43;;
42802;SDS011;28447;48.682;9.022;2023-02-28T19:12:36;21.10;;;11.57;;
42802;SDS011;28447;48.682;9.022;2023-02-28T19:15:05;18.53;;;10.80;;
42802;SDS011;28447;48.682;9.022;2023-02-28T19:17:32;20.70;;;11.27;;
42802;SDS011;28447;48.682;9.022;2023-02-28T19:19:58;21.57;;;10.90;;
42802;SDS011;28447;48.682;9.022;2023-02-28T19:22:24;25.20;;;11.50;;
42802;SDS011;28447;48.682;9.022;2023-02-28T19:24:50;19.10;;;11.30;;
42802;SDS011;28447;48.682;9.022;2023-02-28T19:27:16;22.67;;;11.27;;
42802;SDS011;28447;48.682;9.022;2023-02-28T19:29:46;18.40;;;10.67;;
42802;SDS011;28447;48.682;9.022;2023-02-28T19:32:13;22.37;;;11.37;;
42802;SDS011;28447;48.682;9.022;2023-02-28T19:34:41;19.23;;;10.77;;
42802;SDS011;28447;48.682;9.022;2023-02-28T19:37:06;22.70;;;12.27;;
42802;SDS011;28447;48.682;9.022;2023-02-28T19:39:33;22.37;;;11.60;;
42802;SDS011;28447;48.682;9.022;2023-02-28T19:42:05;20.80;;;11.80;;
42802;SDS011;28447;48.682;9.022;2023-02-28T19:44:32;28.95;;;13.00;;
42802;SDS011;28447;48.682;9.022;2023-02-28T19:46:58;22.77;;;12.60;;
42802;SDS011;28447;48.682;9.022;2023-02-28T19:49:24;21.10;;;12.90;;
42802;SDS011;28447;48.682;9.022;2023-02-28T19:51:49;25.10;;;13.93;;
42802;SDS011;28447;48.682;9.022;2023-02-28T19:54:15;22.97;;;12.50;;
42802;SDS011;28447;48.682;9.022;2023-02-28T19:56:41;24.27;;;13.50;;
42802;SDS011;28447;48.682;9.022;2023-02-28T19:59:06;21.83;;;11.90;;
42802;SDS011;28447;48.682;9.022;2023-02-28T20:01:32;25.70;;;12.77;;
42802;SDS011;28447;48.682;9.022;2023-02-28T20:03:58;26.10;;;12.93;;
42802;SDS011;28447;48.682;9.022;2023-02-28T20:06:23;22.23;;;12.47;;
42802;SDS011;28447;48.682;9.022;2023-02-28T20:08:52;23.50;;;13.13;;
42802;SDS011;28447;48.682;9.022;2023-02-28T20:11:18;27.00;;;14.03;;
42802;SDS011;28447;48.682;9.022;2023-02-28T20:13:44;24.73;;;12.60;;
42802;SDS011;28447;48.682;9.022;2023-02-28T20:16:10;28.30;;;15.80;;
42802;SDS011;28447;48.682;9.022;2023-02-28T20:18:37;28.77;;;13.27;;
42802;SDS011;28447;48.682;9.022;2023-02-28T20:21:06;26.67;;;14.23;;
42802;SDS011;28447;48.682;9.022;2023-02-28T20:23:32;25.33;;;13.83;;
42802;SDS011;28447;48.682;9.022;2023-02-28T20:25:59;26.70;;;14.50;;
42802;SDS011;28447;48.682;9.022;2023-02-28T20:28:25;27.10;;;15.17;;
42802;SDS011;28447;48.682;9.022;2023-02-28T20:30:51;34.77;;;13.70;;
42802;SDS011;28447;48.682;9.022;2023-02-28T20:33:17;31.97;;;14.80;;
42802;SDS011;28447;48.682;9.022;2023-02-28T20:35:43;30.60;;;13.53;;
42802;SDS011;28447;48.682;9.022;2023-02-28T20:38:09;29.03;;;14.70;;
42802;SDS011;28447;48.682;9.022;2023-02-28T20:40:35;21.67;;;12.87;;
42802;SDS011;28447;48.682;9.022;2023-02-28T20:43:01;21.10;;;11.90;;
42802;SDS011;28447;48.682;9.022;2023-02-28T20:45:27;27.73;;;14.73;;
42802;SDS011;28447;48.682;9.022;2023-02-28T20:47:53;26.60;;;15.00;;
42802;SDS011;28447;48.682;9.022;2023-02-28T20:50:19;28.47;;;14.70;;
42802;SDS011;28447;48.682;9.022;2023-02-28T20:52:44;29.37;;;13.87;;
42802;SDS011;28447;48.682;9.022;2023-02-28T20:55:11;26.10;;;13.60;;
42802;SDS011;28447;48.682;9.022;2023-02-28T20:57:37;28.47;;;15.53;;
42802;SDS011;28447;48.682;9.022;2023-02-28T21:00:03;29.53;;;15.47;;
42802;SDS011;28447;48.682;9.022;2023-02-28T21:02:33;30.47;;;14.90;;
42802;SDS011;28447;48.682;9.022;2023-02-28T21:05:00;29.23;;;15.07;;
42802;SDS011;28447;48.682;9.022;2023-02-28T21:07:28;29.60;;;15.60;;
42802;SDS011;28447;48.682;9.022;2023-02-28T21:09:54;27.20;;;13.83;;
42802;SDS011;28447;48.682;9.022;2023-02-28T21:12:20;28.83;;;14.30;;
42802;SDS011;28447;48.682;9.022;2023-02-28T21:14:46;25.77;;;13.50;;
42802;SDS011;28447;48.682;9.022;2023-02-28T21:17:12;29.70;;;15.63;;
42802;SDS011;28447;48.682;9.022;2023-02-28T21:19:38;26.40;;;13.53;;
42802;SDS011;28447;48.682;9.022;2023-02-28T21:22:03;28.30;;;13.80;;
42802;SDS011;28447;48.682;9.022;2023-02-28T21:24:29;27.40;;;13.87;;